createdAt,value
2019-01-08T00:00:39.204Z,100633.16
2019-01-08T00:04:44.889Z,100632.22
2019-01-08T00:08:49.089Z,100625.56
2019-01-08T00:12:53.257Z,100617.66
2019-01-08T00:16:57.450Z,100607.06
2019-01-08T00:21:01.668Z,100601.05
2019-01-08T00:25:05.965Z,100585.37
2019-01-08T00:29:10.156Z,100575.47
2019-01-08T00:33:14.347Z,100565.30
2019-01-08T00:37:18.593Z,100555.99
2019-01-08T00:41:22.814Z,100545.39
2019-01-08T00:45:26.976Z,100538.27
2019-01-08T00:49:31.210Z,100540.19
2019-01-08T00:53:35.547Z,100529.59
2019-01-08T00:57:39.686Z,100524.64
2019-01-08T01:01:43.880Z,100518.31
2019-01-08T01:05:48.072Z,100509.72
2019-01-08T01:09:52.371Z,100504.75
2019-01-08T01:13:56.507Z,100497.48
2019-01-08T01:18:00.746Z,100495.63
2019-01-08T01:22:04.962Z,100486.16
2019-01-08T01:26:09.141Z,100473.12
2019-01-08T01:30:13.363Z,100472.61
2019-01-08T01:34:17.530Z,100464.14
2019-01-08T01:38:21.728Z,100456.70
2019-01-08T01:42:25.967Z,100440.92
2019-01-08T01:46:30.160Z,100437.71
2019-01-08T01:50:34.394Z,100430.75
2019-01-08T01:54:38.517Z,100425.75
2019-01-08T01:58:42.859Z,100410.13
2019-01-08T02:02:47.145Z,100409.24
2019-01-08T02:06:51.333Z,100395.88
2019-01-08T02:10:55.785Z,100389.41
2019-01-08T02:14:59.995Z,100391.16
2019-01-08T02:19:04.288Z,100383.48
2019-01-08T02:23:08.538Z,100377.16
2019-01-08T02:27:12.810Z,100363.83
2019-01-08T02:31:17.389Z,100366.34
2019-01-08T02:35:21.713Z,100359.86
2019-01-08T02:39:26.041Z,100345.92
2019-01-08T02:43:30.326Z,100335.56
2019-01-08T02:47:34.602Z,100328.62
2019-01-08T02:51:39.142Z,100328.53
2019-01-08T02:55:43.411Z,100315.17
2019-01-08T02:59:48.853Z,100301.01
2019-01-08T03:03:53.077Z,100295.28
2019-01-08T03:07:57.516Z,100283.45
2019-01-08T03:12:01.713Z,100272.26
2019-01-08T03:16:05.877Z,100266.31
2019-01-08T03:20:10.416Z,100248.58
2019-01-08T03:24:14.617Z,100248.19
2019-01-08T03:28:18.802Z,100234.66
2019-01-08T03:32:23.052Z,100234.95
2019-01-08T03:36:27.276Z,100217.91
2019-01-08T03:40:31.466Z,100201.10
2019-01-08T03:44:35.664Z,100192.45
2019-01-08T03:48:39.834Z,100181.34
2019-01-08T03:52:44.042Z,100173.46
2019-01-08T03:56:48.232Z,100163.21
2019-01-08T04:00:52.372Z,100145.86
2019-01-08T04:04:56.903Z,100137.17
2019-01-08T04:09:01.356Z,100121.07
2019-01-08T04:13:05.534Z,100114.41
2019-01-08T04:17:09.693Z,100091.52
2019-01-08T04:21:13.896Z,100080.33
2019-01-08T04:25:18.113Z,100068.06
2019-01-08T04:29:22.336Z,100061.13
2019-01-08T04:33:26.496Z,100055.34
2019-01-08T04:37:30.725Z,100037.50
2019-01-08T04:41:34.928Z,100022.16
2019-01-08T04:45:39.128Z,100011.95
2019-01-08T04:49:43.406Z,100001.71
2019-01-08T04:53:47.719Z,100002.84
2019-01-08T04:57:51.952Z,99994.37
2019-01-08T05:01:57.147Z,99995.98
2019-01-08T05:06:01.429Z,99993.59
2019-01-08T05:10:05.859Z,99988.14
2019-01-08T05:14:10.193Z,99981.76
2019-01-08T05:18:14.598Z,99965.84
2019-01-08T05:22:18.902Z,99965.09
2019-01-08T05:26:23.219Z,99955.62
2019-01-08T05:30:27.505Z,99939.64
2019-01-08T05:34:31.703Z,99941.94
2019-01-08T05:38:36.437Z,99936.00
2019-01-08T05:42:40.714Z,99930.09
2019-01-08T05:46:52.365Z,99924.09
2019-01-08T05:50:57.335Z,99920.72
2019-01-08T05:55:01.829Z,99909.46
2019-01-08T05:59:08.486Z,99894.66
2019-01-08T06:03:13.026Z,99885.97
2019-01-08T06:07:18.060Z,99883.77
2019-01-08T06:11:28.839Z,99858.99
2019-01-08T06:15:35.917Z,99835.95
2019-01-08T06:20:03.370Z,99838.55
2019-01-08T06:24:22.716Z,99826.29
2019-01-08T06:28:27.092Z,99813.78
2019-01-08T06:32:31.459Z,99812.53
2019-01-08T06:36:36.613Z,99805.37
2019-01-08T06:40:40.902Z,99791.80
2019-01-08T06:44:47.253Z,99790.97
2019-01-08T06:49:10.611Z,99781.40
2019-01-08T06:53:33.963Z,99761.55
2019-01-08T06:57:38.291Z,99742.01
2019-01-08T07:02:02.217Z,99733.98
2019-01-08T07:06:25.555Z,99726.93
2019-01-08T07:10:31.691Z,99725.63
2019-01-08T07:14:37.017Z,99715.12
2019-01-08T07:19:00.514Z,99701.02
2019-01-08T07:23:06.545Z,99690.40
2019-01-08T07:27:16.641Z,99679.78
2019-01-08T07:31:20.009Z,99677.19
2019-01-08T07:35:43.622Z,99675.87
2019-01-08T07:39:49.582Z,99670.38
2019-01-08T07:44:12.960Z,99659.60
2019-01-08T07:48:17.188Z,99636.94
2019-01-08T07:52:40.547Z,99637.73
2019-01-08T07:56:46.596Z,99630.20
2019-01-08T08:00:51.216Z,99626.13
2019-01-08T08:05:14.544Z,99613.89
2019-01-08T08:09:37.863Z,99616.31
2019-01-08T08:13:43.835Z,99608.78
2019-01-08T08:17:48.127Z,99604.39
2019-01-08T08:21:53.736Z,99601.31
2019-01-08T08:26:01.500Z,99604.08
2019-01-08T08:30:08.354Z,99595.61
2019-01-08T08:34:12.803Z,99588.61
2019-01-08T08:38:36.160Z,99602.04
2019-01-08T08:42:59.552Z,99599.13
2019-01-08T08:47:03.783Z,99585.48
2019-01-08T08:51:08.058Z,99591.83
2019-01-08T08:55:12.428Z,99588.56
2019-01-08T08:59:16.751Z,99575.21
2019-01-08T09:03:21.067Z,99565.87
2019-01-08T09:07:25.364Z,99571.27
2019-01-08T09:11:29.624Z,99568.56
2019-01-08T09:15:33.937Z,99561.59
2019-01-08T09:19:57.314Z,99558.06
2019-01-08T09:24:01.602Z,99559.48
2019-01-08T09:28:07.757Z,99540.39
2019-01-08T09:32:15.247Z,99525.27
2019-01-08T09:36:38.628Z,99520.92
2019-01-08T09:40:42.933Z,99507.69
2019-01-08T09:44:47.606Z,99507.50
2019-01-08T09:48:51.925Z,99501.23
2019-01-08T09:53:15.272Z,99502.37
2019-01-08T09:57:38.649Z,99492.05
2019-01-08T10:01:43.027Z,99479.94
2019-01-08T10:06:06.421Z,99476.45
2019-01-08T10:10:14.741Z,99470.22
2019-01-08T10:14:19.095Z,99466.87
2019-01-08T10:18:42.788Z,99465.62
2019-01-08T10:23:10.243Z,99453.21
2019-01-08T10:27:15.348Z,99438.77
2019-01-08T10:31:19.675Z,99438.25
2019-01-08T10:35:43.046Z,99435.16
2019-01-08T10:40:06.673Z,99425.82
2019-01-08T10:44:14.056Z,99403.98
2019-01-08T10:48:18.608Z,99402.91
2019-01-08T10:52:22.866Z,99398.31
2019-01-08T10:56:27.498Z,99380.19
2019-01-08T11:00:50.823Z,99379.89
2019-01-08T11:05:14.099Z,99372.30
2019-01-08T11:09:18.349Z,99366.39
2019-01-08T11:13:23.171Z,99352.67
2019-01-08T11:17:27.486Z,99327.63
2019-01-08T11:21:31.713Z,99315.60
2019-01-08T11:25:35.940Z,99310.08
2019-01-08T11:29:40.126Z,99312.44
2019-01-08T11:33:44.265Z,99294.35
2019-01-08T11:37:48.412Z,99288.86
2019-01-08T11:41:52.890Z,99276.87
2019-01-08T11:45:57.103Z,99268.73
2019-01-08T11:50:02.064Z,99259.75
2019-01-08T11:54:06.226Z,99252.51
2019-01-08T11:58:10.602Z,99250.87
2019-01-08T12:02:14.725Z,99242.25
2019-01-08T12:06:18.942Z,99228.84
2019-01-08T12:10:25.643Z,99221.62
2019-01-08T12:14:29.765Z,99227.02
2019-01-08T12:18:33.937Z,99221.14
2019-01-08T12:22:41.000Z,99220.09
2019-01-08T12:26:43.965Z,99210.67
2019-01-08T12:30:48.126Z,99215.20
2019-01-08T12:34:52.304Z,99201.02
2019-01-08T12:38:56.819Z,99192.37
2019-01-08T12:43:01.608Z,99194.59
2019-01-08T12:47:05.869Z,99191.06
2019-01-08T12:51:10.010Z,99186.28
2019-01-08T12:55:14.175Z,99187.97
2019-01-08T12:59:18.451Z,99193.98
2019-01-08T13:03:22.736Z,99170.03
2019-01-08T13:07:26.893Z,99176.61
2019-01-08T13:11:31.063Z,99167.09
2019-01-08T13:15:35.243Z,99172.34
2019-01-08T13:19:39.410Z,99167.14
2019-01-08T13:23:43.549Z,99153.22
2019-01-08T13:27:47.831Z,99143.70
2019-01-08T13:31:51.939Z,99139.37
2019-01-08T13:35:56.111Z,99131.59
2019-01-08T13:40:00.352Z,99123.78
2019-01-08T13:44:04.515Z,99126.39
2019-01-08T13:48:08.770Z,99121.66
2019-01-08T13:52:12.947Z,99129.89
2019-01-08T13:56:17.346Z,99124.66
2019-01-08T14:00:21.587Z,99122.50
2019-01-08T14:04:25.754Z,99115.05
2019-01-08T14:08:29.999Z,99117.63
2019-01-08T14:12:34.154Z,99111.52
2019-01-08T14:16:38.663Z,99101.45
2019-01-08T14:20:42.835Z,99104.03
2019-01-08T14:24:47.138Z,99089.61
2019-01-08T14:28:51.308Z,99084.46
2019-01-08T14:32:55.481Z,99070.57
2019-01-08T14:36:59.819Z,99068.39
2019-01-08T14:41:04.395Z,99067.11
2019-01-08T14:45:08.663Z,99068.89
2019-01-08T14:49:12.829Z,99049.34
2019-01-08T14:53:17.010Z,99037.14
2019-01-08T14:57:21.188Z,99041.92
2019-01-08T15:01:25.349Z,99032.36
2019-01-08T15:05:29.797Z,99029.27
2019-01-08T15:09:33.948Z,99016.20
2019-01-08T15:13:38.134Z,99006.22
2019-01-08T15:17:42.314Z,99013.19
2019-01-08T15:21:46.587Z,99004.01
2019-01-08T15:25:51.180Z,99000.52
2019-01-08T15:29:55.391Z,98985.24
2019-01-08T15:33:59.514Z,98982.63
2019-01-08T15:38:03.732Z,98967.40
2019-01-08T15:42:07.857Z,98953.95
2019-01-08T15:46:12.031Z,98938.28
2019-01-08T15:50:16.195Z,98941.33
2019-01-08T15:54:20.336Z,98941.80
2019-01-08T15:58:24.497Z,98932.25
2019-01-08T16:02:28.963Z,98937.02
2019-01-08T16:06:33.140Z,98916.14
2019-01-08T16:10:37.315Z,98927.46
2019-01-08T16:14:41.485Z,98920.09
2019-01-08T16:18:45.673Z,98927.03
2019-01-08T16:22:49.812Z,98933.56
2019-01-08T16:26:53.981Z,98929.64
2019-01-08T16:30:58.134Z,98918.73
2019-01-08T16:35:02.299Z,98915.71
2019-01-08T16:39:08.322Z,98917.42
2019-01-08T16:43:12.482Z,98921.34
2019-01-08T16:47:16.675Z,98904.36
2019-01-08T16:51:20.906Z,98912.19
2019-01-08T16:55:25.090Z,98894.38
2019-01-08T16:59:29.261Z,98896.98
2019-01-08T17:03:33.386Z,98903.95
2019-01-08T17:07:37.562Z,98888.28
2019-01-08T17:11:41.689Z,98893.50
2019-01-08T17:15:45.864Z,98891.31
2019-01-08T17:19:50.040Z,98883.48
2019-01-08T17:23:54.166Z,98884.78
2019-01-08T17:27:58.361Z,98862.59
2019-01-08T17:32:02.528Z,98843.44
2019-01-08T17:36:06.696Z,98840.82
2019-01-08T17:40:10.861Z,98837.75
2019-01-08T17:44:15.031Z,98824.25
2019-01-08T17:48:19.196Z,98815.12
2019-01-08T17:52:23.328Z,98794.67
2019-01-08T17:56:27.498Z,98795.58
2019-01-08T18:00:32.651Z,98782.53
2019-01-08T18:04:36.938Z,98796.44
2019-01-08T18:08:41.129Z,98788.59
2019-01-08T18:12:45.338Z,98776.88
2019-01-08T18:16:49.535Z,98777.72
2019-01-08T18:20:53.653Z,98780.33
2019-01-08T18:24:57.906Z,98769.47
2019-01-08T18:29:02.035Z,98766.49
2019-01-08T18:33:06.449Z,98754.77
2019-01-08T18:37:10.644Z,98750.88
2019-01-08T18:41:14.814Z,98750.91
2019-01-08T18:45:19.034Z,98743.54
2019-01-08T18:49:23.224Z,98753.98
2019-01-08T18:53:27.394Z,98737.05
2019-01-08T18:57:31.570Z,98750.55
2019-01-08T19:01:35.758Z,98763.14
2019-01-08T19:05:39.955Z,98731.83
2019-01-08T19:09:48.250Z,98742.30
2019-01-08T19:13:52.562Z,98747.05
2019-01-08T19:17:56.753Z,98734.88
2019-01-08T19:22:00.966Z,98734.45
2019-01-08T19:26:05.210Z,98745.75
2019-01-08T19:30:10.348Z,98737.92
2019-01-08T19:34:14.551Z,98734.45
2019-01-08T19:38:18.778Z,98717.50
2019-01-08T19:42:23.169Z,98713.60
2019-01-08T19:46:27.486Z,98716.62
2019-01-08T19:50:31.717Z,98706.63
2019-01-08T19:54:35.897Z,98699.23
2019-01-08T19:58:40.154Z,98703.13
2019-01-08T20:02:44.379Z,98698.78
2019-01-08T20:06:48.568Z,98694.00
2019-01-08T20:10:52.791Z,98683.98
2019-01-08T20:14:56.952Z,98688.34
2019-01-08T20:19:01.170Z,98674.45
2019-01-08T20:23:05.322Z,98679.20
2019-01-08T20:27:09.532Z,98678.33
2019-01-08T20:31:14.060Z,98662.66
2019-01-08T20:35:18.600Z,98684.83
2019-01-08T20:39:22.753Z,98681.36
2019-01-08T20:43:26.948Z,98676.58
2019-01-08T20:47:31.195Z,98672.23
2019-01-08T20:51:35.460Z,98663.11
2019-01-08T20:55:39.758Z,98669.16
2019-01-08T20:59:43.975Z,98677.42
2019-01-08T21:03:48.140Z,98676.98
2019-01-08T21:07:52.311Z,98690.48
2019-01-08T21:11:56.508Z,98696.11
2019-01-08T21:16:00.699Z,98709.17
2019-01-08T21:20:05.251Z,98695.70
2019-01-08T21:24:09.441Z,98693.10
2019-01-08T21:28:13.611Z,98694.42
2019-01-08T21:32:17.869Z,98695.72
2019-01-08T21:36:22.118Z,98697.45
2019-01-08T21:40:26.316Z,98698.77
2019-01-08T21:44:30.456Z,98693.96
2019-01-08T21:48:34.648Z,98687.89
2019-01-08T21:52:38.833Z,98692.22
2019-01-08T21:56:43.034Z,98681.34
2019-01-08T22:00:47.257Z,98673.06
2019-01-08T22:04:53.173Z,98687.42
2019-01-08T22:08:57.386Z,98653.90
2019-01-08T22:13:01.586Z,98669.12
2019-01-08T22:17:05.778Z,98670.45
2019-01-08T22:21:09.966Z,98667.80
2019-01-08T22:25:14.155Z,98665.19
2019-01-08T22:29:18.585Z,98667.37
2019-01-08T22:33:22.765Z,98675.22
2019-01-08T22:37:26.983Z,98657.41
2019-01-08T22:41:31.250Z,98655.69
2019-01-08T22:45:35.390Z,98651.76
2019-01-08T22:49:39.562Z,98652.20
2019-01-08T22:53:43.740Z,98646.98
2019-01-08T22:57:47.901Z,98651.33
2019-01-08T23:01:53.397Z,98627.41
2019-01-08T23:05:57.924Z,98632.22
2019-01-08T23:10:02.121Z,98633.95
2019-01-08T23:14:06.429Z,98623.97
2019-01-08T23:18:10.599Z,98627.89
2019-01-08T23:22:14.724Z,98613.95
2019-01-08T23:26:18.895Z,98609.17
2019-01-08T23:30:23.074Z,98599.59
2019-01-08T23:34:27.187Z,98609.19
2019-01-08T23:38:31.369Z,98602.66
2019-01-08T23:42:35.582Z,98594.83
2019-01-08T23:46:40.053Z,98596.99
2019-01-08T23:50:44.304Z,98596.56
2019-01-08T23:54:49.584Z,98594.39
2019-01-08T23:58:54.086Z,98588.72
